createdAt,value
2023-01-13T00:00:16.563Z,99970.47
2023-01-13T00:02:43.674Z,99960.28
2023-01-13T00:05:11.544Z,99947.72
2023-01-13T00:07:40.248Z,99944.09
2023-01-13T00:10:10.204Z,99943.28
2023-01-13T00:12:41.034Z,99941.88
2023-01-13T00:15:10.190Z,99931.28
2023-01-13T00:17:39.163Z,99926.59
2023-01-13T00:20:07.924Z,99931.44
2023-01-13T00:22:35.470Z,99945.25
2023-01-13T00:25:04.269Z,99944.84
2023-01-13T00:27:31.807Z,99931.38
2023-01-13T00:30:00.724Z,99937.31
2023-01-13T00:32:28.312Z,99937.69
2023-01-13T00:34:55.641Z,99948.53
2023-01-13T00:37:23.565Z,99942.75
2023-01-13T00:39:51.466Z,99945.56
2023-01-13T00:42:37.803Z,99934.97
2023-01-13T00:45:07.526Z,99950.13
2023-01-13T00:47:34.615Z,99948.53
2023-01-13T00:50:01.616Z,99949.69
2023-01-13T00:52:28.663Z,99956.69
2023-01-13T00:54:55.669Z,99960.72
2023-01-13T00:57:22.707Z,99956.25
2023-01-13T00:59:49.818Z,99947.72
2023-01-13T01:02:18.272Z,99959.13
2023-01-13T01:04:45.389Z,99957.50
2023-01-13T01:07:13.049Z,99958.50
2023-01-13T01:09:40.144Z,99961.03
2023-01-13T01:12:07.596Z,99964.13
2023-01-13T01:14:34.743Z,99973.53
2023-01-13T01:17:01.873Z,99972.94
2023-01-13T01:19:30.300Z,99977.06
2023-01-13T01:21:57.315Z,99966.91
2023-01-13T01:24:24.407Z,99978.16
2023-01-13T01:26:51.516Z,99986.34
2023-01-13T01:29:18.563Z,99981.03
2023-01-13T01:31:45.661Z,99985.16
2023-01-13T01:34:12.698Z,99993.72
2023-01-13T01:36:41.111Z,99990.06
2023-01-13T01:39:08.277Z,99987.47
2023-01-13T01:41:36.697Z,99988.50
2023-01-13T01:44:28.577Z,99985.69
2023-01-13T01:46:57.744Z,99980.84
2023-01-13T01:49:32.778Z,99977.59
2023-01-13T01:52:08.510Z,99978.63
2023-01-13T01:54:44.019Z,99978.81
2023-01-13T01:57:18.678Z,99977.41
2023-01-13T01:59:46.388Z,99977.03
2023-01-13T02:02:15.207Z,99972.38
2023-01-13T02:04:51.218Z,99977.69
2023-01-13T02:07:20.441Z,99979.75
2023-01-13T02:09:48.784Z,99980.16
2023-01-13T02:12:34.632Z,99972.47
2023-01-13T02:15:07.526Z,99980.59
2023-01-13T02:18:05.870Z,99986.75
2023-01-13T02:21:27.751Z,99991.28
2023-01-13T02:24:54.306Z,99991.72
2023-01-13T02:27:47.950Z,99996.63
2023-01-13T02:30:51.137Z,100001.09
2023-01-13T02:33:37.189Z,100007.25
2023-01-13T02:36:14.933Z,99996.72
2023-01-13T02:38:51.481Z,99995.88
2023-01-13T02:41:47.436Z,100002.63
2023-01-13T02:44:23.714Z,100013.81
2023-01-13T02:46:56.972Z,100016.03
2023-01-13T02:49:35.863Z,100008.09
2023-01-13T02:52:11.082Z,100010.75
2023-01-13T02:54:44.139Z,100018.25
2023-01-13T02:57:15.580Z,100021.09
2023-01-13T02:59:42.900Z,100017.41
2023-01-13T03:02:16.629Z,100018.81
2023-01-13T03:04:54.880Z,100016.97
2023-01-13T03:07:57.840Z,99998.28
2023-01-13T03:10:47.711Z,99997.91
2023-01-13T03:13:38.365Z,99991.06
2023-01-13T03:16:18.008Z,99998.16
2023-01-13T03:18:59.611Z,100011.00
2023-01-13T03:21:39.179Z,100011.00
2023-01-13T03:24:13.701Z,100011.41
2023-01-13T03:26:48.896Z,100004.06
2023-01-13T03:29:22.162Z,99996.34
2023-01-13T03:32:01.230Z,99998.81
2023-01-13T03:34:37.061Z,99983.53
2023-01-13T03:37:09.391Z,99987.63
2023-01-13T03:39:43.808Z,99983.44
2023-01-13T03:42:18.499Z,99974.47
2023-01-13T03:44:53.386Z,99970.81
2023-01-13T03:47:30.571Z,99972.88
2023-01-13T03:50:03.612Z,99970.06
2023-01-13T03:52:36.250Z,99977.75
2023-01-13T03:55:10.501Z,99984.28
2023-01-13T03:57:52.746Z,99984.28
2023-01-13T04:00:26.084Z,99983.50
2023-01-13T04:03:00.563Z,99981.88
2023-01-13T04:05:30.060Z,99983.53
2023-01-13T04:08:12.279Z,99971.38
2023-01-13T04:10:47.349Z,99992.09
2023-01-13T04:13:21.245Z,99992.09
2023-01-13T04:15:50.297Z,99993.31
2023-01-13T04:18:21.524Z,99990.44
2023-01-13T04:20:52.867Z,99993.22
2023-01-13T04:23:21.402Z,99983.69
2023-01-13T04:25:49.878Z,100001.16
2023-01-13T04:28:18.081Z,99994.44
2023-01-13T04:30:45.783Z,99991.16
2023-01-13T04:33:15.676Z,99978.16
2023-01-13T04:35:44.446Z,99978.75
2023-01-13T04:38:14.755Z,99973.72
2023-01-13T04:40:42.773Z,99961.47
2023-01-13T04:43:11.280Z,99957.31
2023-01-13T04:45:38.340Z,99961.59
2023-01-13T04:48:06.319Z,99962.34
2023-01-13T04:50:33.552Z,99957.03
2023-01-13T04:53:01.183Z,99963.94
2023-01-13T04:55:29.800Z,99963.34
2023-01-13T04:58:03.214Z,99949.81
2023-01-13T05:00:30.318Z,99939.31
2023-01-13T05:02:57.520Z,99943.81
2023-01-13T05:05:24.455Z,99941.75
2023-01-13T05:07:51.357Z,99939.72
2023-01-13T05:10:18.410Z,99942.53
2023-01-13T05:13:05.856Z,99941.31
2023-01-13T05:15:51.313Z,99952.91
2023-01-13T05:18:19.142Z,99941.31
2023-01-13T05:20:46.391Z,99934.78
2023-01-13T05:23:31.956Z,99933.59
2023-01-13T05:25:58.872Z,99943.31
2023-01-13T05:28:32.118Z,99936.03
2023-01-13T05:30:59.506Z,99936.03
2023-01-13T05:33:26.702Z,99941.94
2023-01-13T05:35:53.563Z,99934.38
2023-01-13T05:38:20.592Z,99939.22
2023-01-13T05:41:05.921Z,99946.91
2023-01-13T05:43:34.799Z,99937.97
2023-01-13T05:46:05.439Z,99932.75
2023-01-13T05:48:35.255Z,99927.91
2023-01-13T05:51:04.803Z,99930.09
2023-01-13T05:53:32.678Z,99943.63
2023-01-13T05:56:00.341Z,99937.56
2023-01-13T05:58:28.173Z,99939.94
2023-01-13T06:01:02.208Z,99936.22
2023-01-13T06:03:29.489Z,99935.38
2023-01-13T06:06:01.517Z,99936.56
2023-01-13T06:08:29.816Z,99921.47
2023-01-13T06:10:56.888Z,99933.63
2023-01-13T06:13:25.323Z,99931.16
2023-01-13T06:15:55.863Z,99934.38
2023-01-13T06:18:24.217Z,99933.16
2023-01-13T06:20:51.129Z,99927.47
2023-01-13T06:23:17.988Z,99933.16
2023-01-13T06:25:53.216Z,99931.56
2023-01-13T06:28:20.123Z,99934.38
2023-01-13T06:30:51.640Z,99936.16
2023-01-13T06:33:26.531Z,99924.09
2023-01-13T06:36:00.731Z,99926.16
2023-01-13T06:38:33.675Z,99922.09
2023-01-13T06:41:00.715Z,99924.16
2023-01-13T06:43:27.711Z,99921.31
2023-01-13T06:45:56.233Z,99927.88
2023-01-13T06:48:28.879Z,99927.47
2023-01-13T06:50:55.737Z,99934.97
2023-01-13T06:53:22.672Z,99934.75
2023-01-13T06:55:49.746Z,99951.44
2023-01-13T06:58:17.046Z,99935.16
2023-01-13T07:00:44.320Z,99933.41
2023-01-13T07:03:13.529Z,99936.69
2023-01-13T07:05:50.479Z,99943.00
2023-01-13T07:08:17.464Z,99948.38
2023-01-13T07:10:45.980Z,99950.00
2023-01-13T07:13:31.590Z,99946.34
2023-01-13T07:16:02.051Z,99943.53
2023-01-13T07:18:32.028Z,99947.06
2023-01-13T07:21:03.006Z,99948.72
2023-01-13T07:23:32.308Z,99951.38
2023-01-13T07:26:00.441Z,99936.91
2023-01-13T07:28:29.826Z,99950.34
2023-01-13T07:30:57.846Z,99938.75
2023-01-13T07:33:25.569Z,99937.56
2023-01-13T07:35:57.767Z,99930.28
2023-01-13T07:38:26.948Z,99933.59
2023-01-13T07:40:54.412Z,99938.91
2023-01-13T07:43:33.455Z,99945.41
2023-01-13T07:46:04.786Z,99951.91
2023-01-13T07:48:34.471Z,99954.38
2023-01-13T07:51:03.345Z,99947.69
2023-01-13T07:53:31.923Z,99939.94
2023-01-13T07:56:00.435Z,99944.00
2023-01-13T07:58:28.626Z,99947.41
2023-01-13T08:00:56.581Z,99950.63
2023-01-13T08:03:24.347Z,99948.59
2023-01-13T08:05:51.844Z,99951.50
2023-01-13T08:08:19.063Z,99950.66
2023-01-13T08:10:47.334Z,99953.09
2023-01-13T08:13:17.381Z,99948.59
2023-01-13T08:15:46.016Z,99982.78
2023-01-13T08:18:14.363Z,99955.94
2023-01-13T08:20:41.540Z,99957.94
2023-01-13T08:23:08.383Z,99960.72
2023-01-13T08:25:35.651Z,99955.03
2023-01-13T08:28:04.488Z,99967.22
2023-01-13T08:30:31.510Z,99959.13
2023-01-13T08:32:58.525Z,99967.47
2023-01-13T08:35:25.414Z,99967.22
2023-01-13T08:37:52.819Z,99968.47
2023-01-13T08:40:20.931Z,99977.75
2023-01-13T08:42:48.797Z,99955.28
2023-01-13T08:45:17.149Z,99968.91
2023-01-13T08:47:44.055Z,99971.16
2023-01-13T08:50:11.849Z,99963.81
2023-01-13T08:52:38.892Z,99972.88
2023-01-13T08:55:07.729Z,99966.13
2023-01-13T08:57:35.144Z,99960.91
2023-01-13T09:00:04.904Z,99973.31
2023-01-13T09:02:34.112Z,99967.19
2023-01-13T09:05:03.762Z,99975.66
2023-01-13T09:07:31.475Z,99969.91
2023-01-13T09:09:58.577Z,99960.34
2023-01-13T09:12:44.759Z,99961.53
2023-01-13T09:15:12.490Z,99968.13
2023-01-13T09:17:40.762Z,99972.00
2023-01-13T09:20:09.850Z,99966.66
2023-01-13T09:22:39.069Z,99974.53
2023-01-13T09:25:06.737Z,99963.53
2023-01-13T09:27:33.671Z,99968.06
2023-01-13T09:30:01.653Z,99959.13
2023-01-13T09:32:29.147Z,99961.00
2023-01-13T09:34:59.961Z,99959.16
2023-01-13T09:37:29.479Z,99966.59
2023-01-13T09:39:56.851Z,99957.22
2023-01-13T09:42:52.348Z,99966.28
2023-01-13T09:45:25.307Z,99973.03
2023-01-13T09:48:01.190Z,99975.84
2023-01-13T09:50:44.415Z,99975.00
2023-01-13T09:53:22.584Z,99977.66
2023-01-13T09:55:49.815Z,99976.16
2023-01-13T09:58:19.098Z,99970.47
2023-01-13T10:01:05.855Z,99969.59
2023-01-13T10:03:35.295Z,99974.03
2023-01-13T10:06:13.466Z,99968.00
2023-01-13T10:08:43.346Z,99967.16
2023-01-13T10:11:34.907Z,99971.41
2023-01-13T10:14:10.469Z,99975.03
2023-01-13T10:16:46.675Z,99966.09
2023-01-13T10:19:22.560Z,99971.09
2023-01-13T10:22:22.783Z,99978.44
2023-01-13T10:25:22.462Z,99974.75
2023-01-13T10:27:54.145Z,99999.97
2023-01-13T10:30:31.259Z,100014.91
2023-01-13T10:33:01.018Z,100022.94
2023-01-13T10:35:58.998Z,100031.63
2023-01-13T10:38:35.913Z,100033.09
2023-01-13T10:41:06.555Z,100037.44
2023-01-13T10:43:33.631Z,100028.53
2023-01-13T10:46:05.972Z,100026.56
2023-01-13T10:48:38.147Z,100021.34
2023-01-13T10:51:24.662Z,100018.88
2023-01-13T10:53:58.005Z,100018.47
2023-01-13T10:56:28.256Z,100005.44
2023-01-13T10:59:14.285Z,100015.63
2023-01-13T11:01:43.604Z,100017.19
2023-01-13T11:04:30.466Z,100010.25
2023-01-13T11:06:58.768Z,100011.84
2023-01-13T11:09:30.427Z,100002.41
2023-01-13T11:11:59.368Z,100005.22
2023-01-13T11:14:39.282Z,100006.63
2023-01-13T11:17:40.252Z,100008.25
2023-01-13T11:20:23.366Z,100013.69
2023-01-13T11:22:55.628Z,100003.63
2023-01-13T11:25:32.236Z,100012.94
2023-01-13T11:28:06.689Z,100010.00
2023-01-13T11:30:42.419Z,100006.28
2023-01-13T11:33:34.984Z,100008.75
2023-01-13T11:36:12.012Z,100006.03
2023-01-13T11:38:47.761Z,100012.47
2023-01-13T11:41:31.349Z,100012.63
2023-01-13T11:44:17.944Z,100015.88
2023-01-13T11:46:48.723Z,100002.97
2023-01-13T11:49:26.931Z,100015.56
2023-01-13T11:52:03.404Z,100020.03
2023-01-13T11:55:16.515Z,100010.31
2023-01-13T11:58:50.553Z,100008.88
2023-01-13T12:01:41.911Z,100005.53
2023-01-13T12:04:25.976Z,100012.03
2023-01-13T12:07:12.627Z,100014.41
2023-01-13T12:09:59.550Z,100022.69
2023-01-13T12:12:43.233Z,100028.63
2023-01-13T12:15:47.532Z,100045.75
2023-01-13T12:18:40.998Z,100027.47
2023-01-13T12:21:23.030Z,100043.78
2023-01-13T12:24:10.597Z,100035.69
2023-01-13T12:26:44.738Z,100030.38
2023-01-13T12:29:18.942Z,100027.91
2023-01-13T12:31:50.064Z,100035.63
2023-01-13T12:34:33.647Z,100039.28
2023-01-13T12:37:15.579Z,100032.94
2023-01-13T12:39:55.892Z,100031.66
2023-01-13T12:42:52.565Z,100036.09
2023-01-13T12:45:25.378Z,100028.69
2023-01-13T12:47:55.056Z,100043.75
2023-01-13T12:50:40.718Z,100039.84
2023-01-13T12:53:34.935Z,100044.56
2023-01-13T12:56:46.937Z,100046.22
2023-01-13T12:59:48.748Z,100040.16
2023-01-13T13:02:37.511Z,100041.97
2023-01-13T13:05:55.355Z,100043.03
2023-01-13T13:08:41.650Z,100038.50
2023-01-13T13:11:54.002Z,100047.03
2023-01-13T13:15:02.276Z,100043.78
2023-01-13T13:17:41.391Z,100060.44
2023-01-13T13:20:56.068Z,100048.22
2023-01-13T13:23:50.040Z,100055.09
2023-01-13T13:26:28.888Z,100059.38
2023-01-13T13:29:23.791Z,100058.56
2023-01-13T13:32:39.317Z,100059.78
2023-01-13T13:35:28.976Z,100073.22
2023-01-13T13:38:36.769Z,100061.63
2023-01-13T13:41:32.084Z,100076.47
2023-01-13T13:44:29.202Z,100081.59
2023-01-13T13:47:00.686Z,100085.69
2023-01-13T13:49:40.686Z,100090.19
2023-01-13T13:52:17.781Z,100096.25
2023-01-13T13:54:54.636Z,100089.38
2023-01-13T13:57:30.839Z,100101.81
2023-01-13T14:00:00.621Z,100097.94
2023-01-13T14:02:31.228Z,100098.34
2023-01-13T14:05:17.075Z,100093.88
2023-01-13T14:07:47.199Z,100097.13
2023-01-13T14:10:21.758Z,100109.31
2023-01-13T14:12:48.759Z,100124.78
2023-01-13T14:15:26.720Z,100114.00
2023-01-13T14:17:54.439Z,100109.75
2023-01-13T14:20:21.456Z,100118.78
2023-01-13T14:22:49.303Z,100128.13
2023-01-13T14:25:31.036Z,100130.16
2023-01-13T14:28:17.096Z,100131.81
2023-01-13T14:30:44.750Z,100140.72
2023-01-13T14:33:17.900Z,100135.00
2023-01-13T14:36:15.784Z,100140.13
2023-01-13T14:38:45.928Z,100161.66
2023-01-13T14:41:22.791Z,100136.22
2023-01-13T14:43:54.067Z,100158.16
2023-01-13T14:46:24.935Z,100166.69
2023-01-13T14:49:00.964Z,100164.66
2023-01-13T14:51:30.063Z,100165.06
2023-01-13T14:53:58.377Z,100171.13
2023-01-13T14:56:43.383Z,100164.41
2023-01-13T14:59:47.626Z,100177.88
2023-01-13T15:02:40.967Z,100180.94
2023-01-13T15:05:34.216Z,100189.91
2023-01-13T15:08:08.950Z,100195.81
2023-01-13T15:10:45.672Z,100201.91
2023-01-13T15:13:31.879Z,100209.03
2023-01-13T15:16:02.296Z,100205.34
2023-01-13T15:18:29.218Z,100200.28
2023-01-13T15:20:56.269Z,100201.09
2023-01-13T15:23:23.323Z,100211.91
2023-01-13T15:25:50.396Z,100185.25
2023-01-13T15:28:21.692Z,100193.63
2023-01-13T15:30:50.505Z,100202.19
2023-01-13T15:33:19.494Z,100207.09
2023-01-13T15:35:49.959Z,100192.44
2023-01-13T15:38:20.452Z,100214.41
2023-01-13T15:40:50.072Z,100218.06
2023-01-13T15:43:39.708Z,100213.59
2023-01-13T15:46:33.407Z,100212.59
2023-01-13T15:49:09.580Z,100224.41
2023-01-13T15:51:36.593Z,100230.94
2023-01-13T15:54:03.629Z,100226.66
2023-01-13T15:56:30.799Z,100241.50
2023-01-13T15:58:59.141Z,100234.81
2023-01-13T16:01:26.129Z,100236.44
2023-01-13T16:03:53.150Z,100238.06
2023-01-13T16:06:27.604Z,100249.47
2023-01-13T16:08:54.506Z,100249.06
2023-01-13T16:11:21.419Z,100249.06
2023-01-13T16:13:48.335Z,100262.66
2023-01-13T16:16:21.688Z,100253.09
2023-01-13T16:18:49.323Z,100249.00
2023-01-13T16:21:16.884Z,100266.09
2023-01-13T16:23:43.829Z,100262.25
2023-01-13T16:26:20.493Z,100279.16
2023-01-13T16:28:48.513Z,100264.09
2023-01-13T16:31:22.820Z,100283.22
2023-01-13T16:33:50.304Z,100271.41
2023-01-13T16:36:19.984Z,100293.34
2023-01-13T16:38:48.564Z,100290.31
2023-01-13T16:41:15.743Z,100317.97
2023-01-13T16:43:43.086Z,100302.31
2023-01-13T16:46:24.728Z,100311.25
2023-01-13T16:48:53.578Z,100316.97
2023-01-13T16:51:21.758Z,100334.06
2023-01-13T16:53:49.522Z,100344.66
2023-01-13T16:56:24.457Z,100346.91
2023-01-13T16:58:53.143Z,100351.97
2023-01-13T17:01:25.596Z,100356.44
2023-01-13T17:03:53.966Z,100359.31
2023-01-13T17:06:27.414Z,100365.38
2023-01-13T17:08:54.690Z,100362.75
2023-01-13T17:11:22.061Z,100358.88
2023-01-13T17:13:49.113Z,100365.41
2023-01-13T17:16:22.064Z,100379.22
2023-01-13T17:18:49.166Z,100394.47
2023-01-13T17:21:16.882Z,100393.88
2023-01-13T17:23:44.326Z,100401.63
2023-01-13T17:26:32.101Z,100390.22
2023-01-13T17:29:00.760Z,100405.28
2023-01-13T17:31:29.802Z,100419.72
2023-01-13T17:33:56.925Z,100416.25
2023-01-13T17:36:25.548Z,100436.41
2023-01-13T17:38:53.582Z,100442.69
2023-01-13T17:41:20.741Z,100441.88
2023-01-13T17:43:48.014Z,100430.47
2023-01-13T17:46:19.744Z,100430.03
2023-01-13T17:48:49.864Z,100421.09
2023-01-13T17:51:18.674Z,100440.59
2023-01-13T17:53:45.711Z,100454.66
2023-01-13T17:56:15.238Z,100443.63
2023-01-13T17:58:42.799Z,100461.72
2023-01-13T18:01:14.058Z,100471.22
2023-01-13T18:03:41.035Z,100483.94
2023-01-13T18:06:16.659Z,100490.81
2023-01-13T18:08:43.824Z,100496.44
2023-01-13T18:11:10.794Z,100484.41
2023-01-13T18:13:40.969Z,100480.09
2023-01-13T18:16:11.868Z,100482.31
2023-01-13T18:18:41.714Z,100490.63
2023-01-13T18:21:36.706Z,100480.03
2023-01-13T18:24:23.198Z,100471.84
2023-01-13T18:27:08.758Z,100482.78
2023-01-13T18:29:35.633Z,100480.28
2023-01-13T18:32:02.523Z,100492.13
2023-01-13T18:34:29.709Z,100493.34
2023-01-13T18:36:58.161Z,100506.78
2023-01-13T18:39:25.107Z,100506.41
2023-01-13T18:42:10.963Z,100529.53
2023-01-13T18:44:37.992Z,100512.69
2023-01-13T18:47:05.100Z,100513.94
2023-01-13T18:49:32.036Z,100514.94
2023-01-13T18:52:00.569Z,100527.13
2023-01-13T18:54:27.788Z,100520.84
2023-01-13T18:56:56.028Z,100526.75
2023-01-13T18:59:24.536Z,100539.34
2023-01-13T19:01:52.049Z,100546.47
2023-01-13T19:04:19.611Z,100537.97
2023-01-13T19:06:50.760Z,100551.00
2023-01-13T19:09:24.574Z,100563.81
2023-01-13T19:11:52.087Z,100554.25
2023-01-13T19:14:37.243Z,100560.59
2023-01-13T19:17:09.290Z,100570.34
2023-01-13T19:19:40.448Z,100559.41
2023-01-13T19:22:08.419Z,100565.94
2023-01-13T19:24:37.151Z,100579.75
2023-01-13T19:27:04.467Z,100588.28
2023-01-13T19:29:33.808Z,100591.97
2023-01-13T19:32:01.137Z,100590.94
2023-01-13T19:34:28.890Z,100615.53
2023-01-13T19:36:55.870Z,100606.03
2023-01-13T19:39:23.898Z,100610.28
2023-01-13T19:42:11.476Z,100609.09
2023-01-13T19:44:57.585Z,100622.50
2023-01-13T19:47:24.645Z,100625.75
2023-01-13T19:49:51.574Z,100625.38
2023-01-13T19:52:18.535Z,100632.28
2023-01-13T19:54:47.042Z,100640.19
2023-01-13T19:57:15.704Z,100649.16
2023-01-13T19:59:42.925Z,100646.09
2023-01-13T20:02:15.383Z,100653.88
2023-01-13T20:04:45.184Z,100649.41
2023-01-13T20:07:13.687Z,100648.56
2023-01-13T20:09:44.869Z,100643.72
2023-01-13T20:12:17.850Z,100640.25
2023-01-13T20:14:49.955Z,100648.81
2023-01-13T20:17:20.989Z,100648.66
2023-01-13T20:19:49.245Z,100645.34
2023-01-13T20:22:16.152Z,100672.97
2023-01-13T20:24:43.399Z,100705.50
2023-01-13T20:27:10.360Z,100710.38
2023-01-13T20:29:38.086Z,100714.34
2023-01-13T20:32:06.455Z,100712.09
2023-01-13T20:34:33.618Z,100702.59
2023-01-13T20:37:00.818Z,100703.22
2023-01-13T20:39:27.856Z,100708.13
2023-01-13T20:42:14.148Z,100718.97
2023-01-13T20:44:41.813Z,100739.06
2023-01-13T20:47:10.107Z,100744.00
2023-01-13T20:49:37.038Z,100748.91
2023-01-13T20:52:09.495Z,100749.53
2023-01-13T20:54:37.517Z,100725.34
2023-01-13T20:57:07.684Z,100712.66
2023-01-13T20:59:35.720Z,100760.63
2023-01-13T21:02:03.585Z,100781.38
2023-01-13T21:04:32.199Z,100769.97
2023-01-13T21:06:59.437Z,100775.22
2023-01-13T21:09:27.163Z,100785.28
2023-01-13T21:12:13.280Z,100779.50
2023-01-13T21:14:59.270Z,100782.25
2023-01-13T21:17:45.437Z,100767.16
2023-01-13T21:20:15.517Z,100776.44
2023-01-13T21:22:45.091Z,100782.75
2023-01-13T21:25:13.283Z,100764.06
2023-01-13T21:27:41.644Z,100782.19
2023-01-13T21:30:14.650Z,100784.63
2023-01-13T21:32:43.579Z,100783.00
2023-01-13T21:35:13.178Z,100796.84
2023-01-13T21:37:42.337Z,100794.81
2023-01-13T21:40:13.424Z,100800.75
2023-01-13T21:43:04.071Z,100810.75
2023-01-13T21:45:49.694Z,100811.19
2023-01-13T21:48:16.597Z,100825.84
2023-01-13T21:50:45.220Z,100822.06
2023-01-13T21:53:12.129Z,100821.03
2023-01-13T21:55:39.035Z,100825.84
2023-01-13T21:58:11.481Z,100830.31
2023-01-13T22:00:40.678Z,100825.78
2023-01-13T22:03:09.802Z,100830.06
2023-01-13T22:05:37.413Z,100830.25
2023-01-13T22:08:06.960Z,100838.34
2023-01-13T22:10:34.386Z,100840.56
2023-01-13T22:13:23.198Z,100844.75
2023-01-13T22:15:50.146Z,100843.88
2023-01-13T22:18:18.112Z,100852.16
2023-01-13T22:20:45.261Z,100858.00
2023-01-13T22:23:13.740Z,100856.13
2023-01-13T22:25:40.701Z,100852.84
2023-01-13T22:28:09.139Z,100860.56
2023-01-13T22:30:36.525Z,100856.66
2023-01-13T22:33:03.700Z,100858.22
2023-01-13T22:35:30.820Z,100867.31
2023-01-13T22:37:58.513Z,100878.88
2023-01-13T22:40:26.824Z,100887.19
2023-01-13T22:42:53.691Z,100891.84
2023-01-13T22:45:20.630Z,100897.56
2023-01-13T22:47:49.490Z,100894.72
2023-01-13T22:50:20.622Z,100900.00
2023-01-13T22:52:47.618Z,100900.81
2023-01-13T22:55:14.770Z,100903.66
2023-01-13T22:57:47.967Z,100906.28
2023-01-13T23:00:18.695Z,100912.56
2023-01-13T23:02:45.726Z,100910.13
2023-01-13T23:05:13.654Z,100913.75
2023-01-13T23:07:40.989Z,100913.13
2023-01-13T23:10:09.295Z,100919.84
2023-01-13T23:12:36.326Z,100923.75
2023-01-13T23:15:05.835Z,100925.06
2023-01-13T23:17:32.797Z,100928.94
2023-01-13T23:19:59.723Z,100930.22
2023-01-13T23:22:26.760Z,100929.88
2023-01-13T23:24:53.667Z,100940.06
2023-01-13T23:27:20.562Z,100934.78
2023-01-13T23:29:47.463Z,100933.53
2023-01-13T23:32:15.699Z,100937.16
2023-01-13T23:34:42.677Z,100937.34
2023-01-13T23:37:09.582Z,100939.31
2023-01-13T23:39:36.530Z,100934.03
2023-01-13T23:42:04.824Z,100938.53
2023-01-13T23:44:31.767Z,100943.81
2023-01-13T23:46:58.824Z,100941.53
2023-01-13T23:49:27.349Z,100944.78
2023-01-13T23:51:54.360Z,100946.81
2023-01-13T23:54:21.450Z,100951.09
2023-01-13T23:56:52.364Z,100951.72
2023-01-13T23:59:20.023Z,100951.72
